Terminal Aerodrome Forecast
Issued by NWS

Home | Current Version | Previous Version | Text Only | Print | Product List | Glossary On
Versions: 1 2 3 4 5 6 7 8 9 10 11 12 13 14 15 16
000
FTUS42 KMLB 060538
TAFTIX
TAF
KTIX 060538Z 0606/0706 03006KT P6SM VCSH SCT015 OVC200
     FM061200 02012KT P6SM VCSH SCT020 BKN030
      TEMPO 0612/0616 2SM SHRA BKN020
     FM061600 02013G20KT P6SM SCT020 BKN030
      TEMPO 0616/0620 3SM SHRA BKN020
     FM062000 03015G23KT P6SM SCT020 BKN035
      TEMPO 0620/0622 5SM SHRA BKN020
     FM070000 03013G19KT P6SM FEW020 BKN030
      AMD NOT SKED TIL 061200=

USA.gov is the U.S. government's official web portal to all federal, state and local government web resources and services.